sensor_id;sensor_type;location;lat;lon;timestamp;temperature;humidity
46754;DHT22;32500;50.620;3.400;2023-02-21T00:00:00;17.20;62.80
46754;DHT22;32500;50.620;3.400;2023-02-21T00:02:44;17.20;62.60
46754;DHT22;32500;50.620;3.400;2023-02-21T00:05:28;17.20;62.50
46754;DHT22;32500;50.620;3.400;2023-02-21T00:08:13;17.20;62.70
46754;DHT22;32500;50.620;3.400;2023-02-21T00:10:57;17.10;62.60
46754;DHT22;32500;50.620;3.400;2023-02-21T00:13:41;17.20;62.70
46754;DHT22;32500;50.620;3.400;2023-02-21T00:16:25;17.10;62.60
46754;DHT22;32500;50.620;3.400;2023-02-21T00:19:09;17.20;62.80
46754;DHT22;32500;50.620;3.400;2023-02-21T00:21:53;17.20;62.70
46754;DHT22;32500;50.620;3.400;2023-02-21T00:24:37;17.20;62.60
46754;DHT22;32500;50.620;3.400;2023-02-21T00:27:23;17.20;62.60
46754;DHT22;32500;50.620;3.400;2023-02-21T00:30:08;17.20;62.50
46754;DHT22;32500;50.620;3.400;2023-02-21T00:32:52;17.20;62.40
46754;DHT22;32500;50.620;3.400;2023-02-21T00:35:37;17.20;62.30
46754;DHT22;32500;50.620;3.400;2023-02-21T00:38:21;17.20;62.30
46754;DHT22;32500;50.620;3.400;2023-02-21T00:41:05;17.20;62.10
46754;DHT22;32500;50.620;3.400;2023-02-21T00:43:49;17.20;62.20
46754;DHT22;32500;50.620;3.400;2023-02-21T00:46:33;17.10;62.30
46754;DHT22;32500;50.620;3.400;2023-02-21T00:49:17;17.20;63.00
46754;DHT22;32500;50.620;3.400;2023-02-21T00:52:02;17.20;62.30
46754;DHT22;32500;50.620;3.400;2023-02-21T00:54:45;17.20;62.10
46754;DHT22;32500;50.620;3.400;2023-02-21T00:57:30;17.20;62.00
46754;DHT22;32500;50.620;3.400;2023-02-21T01:00:17;17.20;62.20
46754;DHT22;32500;50.620;3.400;2023-02-21T01:03:01;17.20;62.30
46754;DHT22;32500;50.620;3.400;2023-02-21T01:05:46;17.10;62.10
46754;DHT22;32500;50.620;3.400;2023-02-21T01:08:30;17.10;62.20
46754;DHT22;32500;50.620;3.400;2023-02-21T01:11:17;17.20;62.10
46754;DHT22;32500;50.620;3.400;2023-02-21T01:14:01;17.20;62.10
46754;DHT22;32500;50.620;3.400;2023-02-21T01:16:45;17.20;62.10
46754;DHT22;32500;50.620;3.400;2023-02-21T01:19:30;17.20;62.10
46754;DHT22;32500;50.620;3.400;2023-02-21T01:22:14;17.10;62.00
46754;DHT22;32500;50.620;3.400;2023-02-21T01:24:59;17.10;61.90
46754;DHT22;32500;50.620;3.400;2023-02-21T01:27:43;17.10;62.10
46754;DHT22;32500;50.620;3.400;2023-02-21T01:30:27;17.10;62.00
46754;DHT22;32500;50.620;3.400;2023-02-21T01:33:11;17.10;62.10
46754;DHT22;32500;50.620;3.400;2023-02-21T01:35:55;17.00;62.00
46754;DHT22;32500;50.620;3.400;2023-02-21T01:38:39;17.10;62.20
46754;DHT22;32500;50.620;3.400;2023-02-21T01:41:23;17.00;62.20
46754;DHT22;32500;50.620;3.400;2023-02-21T01:44:41;17.00;62.10
46754;DHT22;32500;50.620;3.400;2023-02-21T01:47:26;16.90;62.20
46754;DHT22;32500;50.620;3.400;2023-02-21T01:53:10;17.00;62.30
46754;DHT22;32500;50.620;3.400;2023-02-21T01:55:56;16.90;62.40
46754;DHT22;32500;50.620;3.400;2023-02-21T01:58:42;16.90;62.50
46754;DHT22;32500;50.620;3.400;2023-02-21T02:02:01;17.00;62.20
46754;DHT22;32500;50.620;3.400;2023-02-21T02:04:47;17.10;62.20
46754;DHT22;32500;50.620;3.400;2023-02-21T02:07:35;17.00;62.10
46754;DHT22;32500;50.620;3.400;2023-02-21T02:10:20;17.00;62.00
46754;DHT22;32500;50.620;3.400;2023-02-21T02:18:59;16.90;62.30
46754;DHT22;32500;50.620;3.400;2023-02-21T02:21:53;16.90;62.50
46754;DHT22;32500;50.620;3.400;2023-02-21T02:38:10;16.80;62.50
46754;DHT22;32500;50.620;3.400;2023-02-21T02:41:04;16.80;62.50
46754;DHT22;32500;50.620;3.400;2023-02-21T02:43:36;16.70;62.30
46754;DHT22;32500;50.620;3.400;2023-02-21T02:46:12;16.80;63.30
46754;DHT22;32500;50.620;3.400;2023-02-21T02:48:43;16.70;62.70
46754;DHT22;32500;50.620;3.400;2023-02-21T02:51:13;16.70;62.70
46754;DHT22;32500;50.620;3.400;2023-02-21T02:53:40;16.70;62.60
46754;DHT22;32500;50.620;3.400;2023-02-21T02:56:11;16.70;62.60
46754;DHT22;32500;50.620;3.400;2023-02-21T02:58:47;16.70;62.60
46754;DHT22;32500;50.620;3.400;2023-02-21T03:09:17;16.70;62.60
46754;DHT22;32500;50.620;3.400;2023-02-21T03:12:04;16.70;62.50
46754;DHT22;32500;50.620;3.400;2023-02-21T03:14:40;16.70;62.50
46754;DHT22;32500;50.620;3.400;2023-02-21T03:17:12;16.70;62.60
46754;DHT22;32500;50.620;3.400;2023-02-21T03:19:42;16.70;62.50
46754;DHT22;32500;50.620;3.400;2023-02-21T03:22:18;16.60;62.50
46754;DHT22;32500;50.620;3.400;2023-02-21T03:24:46;16.60;62.50
46754;DHT22;32500;50.620;3.400;2023-02-21T03:27:14;16.70;62.60
46754;DHT22;32500;50.620;3.400;2023-02-21T03:29:42;16.60;62.40
46754;DHT22;32500;50.620;3.400;2023-02-21T03:32:12;16.60;62.50
46754;DHT22;32500;50.620;3.400;2023-02-21T03:34:39;16.60;62.50
46754;DHT22;32500;50.620;3.400;2023-02-21T03:37:07;16.60;62.50
46754;DHT22;32500;50.620;3.400;2023-02-21T03:39:33;16.60;62.40
46754;DHT22;32500;50.620;3.400;2023-02-21T03:41:59;16.70;62.50
46754;DHT22;32500;50.620;3.400;2023-02-21T03:44:24;16.60;62.50
46754;DHT22;32500;50.620;3.400;2023-02-21T03:46:50;16.60;62.40
46754;DHT22;32500;50.620;3.400;2023-02-21T03:49:16;16.60;62.30
46754;DHT22;32500;50.620;3.400;2023-02-21T03:51:41;16.60;62.40
46754;DHT22;32500;50.620;3.400;2023-02-21T03:54:07;16.60;63.30
46754;DHT22;32500;50.620;3.400;2023-02-21T03:56:32;16.60;62.70
46754;DHT22;32500;50.620;3.400;2023-02-21T03:58:58;16.60;62.60
46754;DHT22;32500;50.620;3.400;2023-02-21T04:01:24;16.60;62.50
46754;DHT22;32500;50.620;3.400;2023-02-21T04:03:49;16.50;62.60
46754;DHT22;32500;50.620;3.400;2023-02-21T04:06:16;16.60;62.60
46754;DHT22;32500;50.620;3.400;2023-02-21T04:08:41;16.50;63.40
46754;DHT22;32500;50.620;3.400;2023-02-21T04:11:07;16.60;62.60
46754;DHT22;32500;50.620;3.400;2023-02-21T04:13:33;16.50;62.60
46754;DHT22;32500;50.620;3.400;2023-02-21T04:15:59;16.60;62.70
46754;DHT22;32500;50.620;3.400;2023-02-21T04:18:24;16.60;62.50
46754;DHT22;32500;50.620;3.400;2023-02-21T04:20:51;16.60;62.70
46754;DHT22;32500;50.620;3.400;2023-02-21T04:23:18;16.60;62.50
46754;DHT22;32500;50.620;3.400;2023-02-21T04:25:44;16.60;62.40
46754;DHT22;32500;50.620;3.400;2023-02-21T04:28:10;16.50;62.40
46754;DHT22;32500;50.620;3.400;2023-02-21T04:30:35;16.50;62.50
46754;DHT22;32500;50.620;3.400;2023-02-21T04:33:01;16.50;62.40
46754;DHT22;32500;50.620;3.400;2023-02-21T04:35:28;16.50;62.50
46754;DHT22;32500;50.620;3.400;2023-02-21T04:37:53;16.50;62.60
46754;DHT22;32500;50.620;3.400;2023-02-21T04:40:19;16.50;62.50
46754;DHT22;32500;50.620;3.400;2023-02-21T04:42:45;16.50;62.50
46754;DHT22;32500;50.620;3.400;2023-02-21T04:45:10;16.50;62.60
46754;DHT22;32500;50.620;3.400;2023-02-21T04:47:36;16.50;62.50
46754;DHT22;32500;50.620;3.400;2023-02-21T04:50:03;16.50;62.50
46754;DHT22;32500;50.620;3.400;2023-02-21T04:52:28;16.50;62.60
46754;DHT22;32500;50.620;3.400;2023-02-21T04:54:54;16.50;62.50
46754;DHT22;32500;50.620;3.400;2023-02-21T04:57:20;16.50;62.60
46754;DHT22;32500;50.620;3.400;2023-02-21T04:59:45;16.50;62.60
46754;DHT22;32500;50.620;3.400;2023-02-21T05:02:11;16.50;62.80
46754;DHT22;32500;50.620;3.400;2023-02-21T05:04:37;16.50;62.70
46754;DHT22;32500;50.620;3.400;2023-02-21T05:07:03;16.40;62.70
46754;DHT22;32500;50.620;3.400;2023-02-21T05:09:30;16.40;62.80
46754;DHT22;32500;50.620;3.400;2023-02-21T05:11:55;16.40;62.70
46754;DHT22;32500;50.620;3.400;2023-02-21T05:14:21;16.40;62.80
46754;DHT22;32500;50.620;3.400;2023-02-21T05:16:47;16.40;62.70
46754;DHT22;32500;50.620;3.400;2023-02-21T05:19:16;16.40;62.70
46754;DHT22;32500;50.620;3.400;2023-02-21T05:22:01;16.40;62.70
46754;DHT22;32500;50.620;3.400;2023-02-21T05:24:28;16.40;62.70
46754;DHT22;32500;50.620;3.400;2023-02-21T05:26:54;16.40;62.80
46754;DHT22;32500;50.620;3.400;2023-02-21T05:29:20;16.40;62.70
46754;DHT22;32500;50.620;3.400;2023-02-21T05:31:45;16.40;62.60
46754;DHT22;32500;50.620;3.400;2023-02-21T05:34:12;16.40;62.70
46754;DHT22;32500;50.620;3.400;2023-02-21T05:36:38;16.40;62.60
46754;DHT22;32500;50.620;3.400;2023-02-21T05:39:04;16.40;62.70
46754;DHT22;32500;50.620;3.400;2023-02-21T05:41:31;16.40;62.60
46754;DHT22;32500;50.620;3.400;2023-02-21T05:43:56;16.40;62.60
46754;DHT22;32500;50.620;3.400;2023-02-21T05:46:30;16.40;62.50
46754;DHT22;32500;50.620;3.400;2023-02-21T05:48:57;16.40;62.50
46754;DHT22;32500;50.620;3.400;2023-02-21T05:51:24;16.40;62.60
46754;DHT22;32500;50.620;3.400;2023-02-21T05:53:50;16.40;62.80
46754;DHT22;32500;50.620;3.400;2023-02-21T05:56:17;16.30;62.70
46754;DHT22;32500;50.620;3.400;2023-02-21T05:58:44;16.40;62.50
46754;DHT22;32500;50.620;3.400;2023-02-21T06:01:10;16.40;62.60
46754;DHT22;32500;50.620;3.400;2023-02-21T06:03:35;16.40;62.50
46754;DHT22;32500;50.620;3.400;2023-02-21T06:06:01;16.40;62.50
46754;DHT22;32500;50.620;3.400;2023-02-21T06:08:27;16.40;62.50
46754;DHT22;32500;50.620;3.400;2023-02-21T06:10:53;16.40;62.50
46754;DHT22;32500;50.620;3.400;2023-02-21T06:13:18;16.40;62.50
46754;DHT22;32500;50.620;3.400;2023-02-21T06:15:44;16.40;62.30
46754;DHT22;32500;50.620;3.400;2023-02-21T06:18:12;16.40;62.30
46754;DHT22;32500;50.620;3.400;2023-02-21T06:20:39;16.30;62.50
46754;DHT22;32500;50.620;3.400;2023-02-21T06:23:04;16.30;62.60
46754;DHT22;32500;50.620;3.400;2023-02-21T06:25:30;16.40;62.60
46754;DHT22;32500;50.620;3.400;2023-02-21T06:27:56;16.40;62.60
46754;DHT22;32500;50.620;3.400;2023-02-21T06:30:21;16.40;62.70
46754;DHT22;32500;50.620;3.400;2023-02-21T06:32:47;16.30;62.50
46754;DHT22;32500;50.620;3.400;2023-02-21T06:35:12;16.30;62.70
46754;DHT22;32500;50.620;3.400;2023-02-21T06:37:38;16.30;62.80
46754;DHT22;32500;50.620;3.400;2023-02-21T06:40:04;16.30;62.70
46754;DHT22;32500;50.620;3.400;2023-02-21T06:42:30;16.30;62.70
46754;DHT22;32500;50.620;3.400;2023-02-21T06:44:55;16.30;62.60
46754;DHT22;32500;50.620;3.400;2023-02-21T06:47:21;16.30;62.80
46754;DHT22;32500;50.620;3.400;2023-02-21T06:49:47;16.30;62.80
46754;DHT22;32500;50.620;3.400;2023-02-21T06:52:13;16.30;62.80
46754;DHT22;32500;50.620;3.400;2023-02-21T06:54:39;16.40;62.70
46754;DHT22;32500;50.620;3.400;2023-02-21T06:57:04;16.30;62.90
46754;DHT22;32500;50.620;3.400;2023-02-21T06:59:30;16.30;63.00
46754;DHT22;32500;50.620;3.400;2023-02-21T07:01:57;16.30;63.00
46754;DHT22;32500;50.620;3.400;2023-02-21T07:04:23;16.30;62.90
46754;DHT22;32500;50.620;3.400;2023-02-21T07:06:49;16.30;62.90
46754;DHT22;32500;50.620;3.400;2023-02-21T07:09:15;16.30;62.90
46754;DHT22;32500;50.620;3.400;2023-02-21T07:11:41;16.30;62.80
46754;DHT22;32500;50.620;3.400;2023-02-21T07:14:07;16.30;62.90
46754;DHT22;32500;50.620;3.400;2023-02-21T07:16:32;16.30;62.80
46754;DHT22;32500;50.620;3.400;2023-02-21T07:18:58;16.30;62.70
46754;DHT22;32500;50.620;3.400;2023-02-21T07:21:25;16.30;62.70
46754;DHT22;32500;50.620;3.400;2023-02-21T07:23:51;16.30;62.70
46754;DHT22;32500;50.620;3.400;2023-02-21T07:26:17;16.30;62.70
46754;DHT22;32500;50.620;3.400;2023-02-21T07:28:43;16.30;62.70
46754;DHT22;32500;50.620;3.400;2023-02-21T07:31:10;16.30;62.70
46754;DHT22;32500;50.620;3.400;2023-02-21T07:33:35;16.30;62.50
46754;DHT22;32500;50.620;3.400;2023-02-21T07:36:01;16.30;62.70
46754;DHT22;32500;50.620;3.400;2023-02-21T07:38:28;16.30;62.70
46754;DHT22;32500;50.620;3.400;2023-02-21T07:41:00;16.30;62.70
46754;DHT22;32500;50.620;3.400;2023-02-21T07:43:27;16.30;62.70
46754;DHT22;32500;50.620;3.400;2023-02-21T07:45:53;16.30;62.70
46754;DHT22;32500;50.620;3.400;2023-02-21T07:48:19;16.30;62.60
46754;DHT22;32500;50.620;3.400;2023-02-21T07:50:45;16.30;62.70
46754;DHT22;32500;50.620;3.400;2023-02-21T07:53:12;16.40;62.80
46754;DHT22;32500;50.620;3.400;2023-02-21T07:55:38;16.80;61.80
46754;DHT22;32500;50.620;3.400;2023-02-21T07:58:03;17.10;60.70
46754;DHT22;32500;50.620;3.400;2023-02-21T08:00:30;17.30;60.00
46754;DHT22;32500;50.620;3.400;2023-02-21T08:02:56;17.40;59.70
46754;DHT22;32500;50.620;3.400;2023-02-21T08:05:22;17.30;59.70
46754;DHT22;32500;50.620;3.400;2023-02-21T08:07:47;17.50;59.30
46754;DHT22;32500;50.620;3.400;2023-02-21T08:10:19;17.50;59.50
46754;DHT22;32500;50.620;3.400;2023-02-21T08:12:46;17.50;59.40
46754;DHT22;32500;50.620;3.400;2023-02-21T08:15:12;17.50;59.40
46754;DHT22;32500;50.620;3.400;2023-02-21T08:17:37;17.50;59.80
46754;DHT22;32500;50.620;3.400;2023-02-21T08:20:03;17.50;60.40
46754;DHT22;32500;50.620;3.400;2023-02-21T08:22:30;17.50;60.10
46754;DHT22;32500;50.620;3.400;2023-02-21T08:24:56;17.40;60.00
46754;DHT22;32500;50.620;3.400;2023-02-21T08:27:21;17.40;60.00
46754;DHT22;32500;50.620;3.400;2023-02-21T08:29:50;17.40;60.10
46754;DHT22;32500;50.620;3.400;2023-02-21T08:32:17;17.50;59.80
46754;DHT22;32500;50.620;3.400;2023-02-21T08:34:47;17.60;59.70
46754;DHT22;32500;50.620;3.400;2023-02-21T08:37:13;17.60;59.60
46754;DHT22;32500;50.620;3.400;2023-02-21T08:39:48;17.60;59.80
46754;DHT22;32500;50.620;3.400;2023-02-21T08:42:15;17.60;60.30
46754;DHT22;32500;50.620;3.400;2023-02-21T08:44:45;17.60;60.50
46754;DHT22;32500;50.620;3.400;2023-02-21T08:47:12;17.60;60.50
46754;DHT22;32500;50.620;3.400;2023-02-21T08:49:38;17.60;60.50
46754;DHT22;32500;50.620;3.400;2023-02-21T08:52:06;17.50;60.70
46754;DHT22;32500;50.620;3.400;2023-02-21T08:54:32;17.40;60.60
46754;DHT22;32500;50.620;3.400;2023-02-21T08:56:57;17.30;60.80
46754;DHT22;32500;50.620;3.400;2023-02-21T08:59:24;17.30;61.00
46754;DHT22;32500;50.620;3.400;2023-02-21T09:01:50;17.20;61.10
46754;DHT22;32500;50.620;3.400;2023-02-21T09:04:16;17.40;60.80
46754;DHT22;32500;50.620;3.400;2023-02-21T09:06:41;17.40;60.50
46754;DHT22;32500;50.620;3.400;2023-02-21T09:09:07;17.40;60.50
46754;DHT22;32500;50.620;3.400;2023-02-21T09:11:33;17.40;60.60
46754;DHT22;32500;50.620;3.400;2023-02-21T09:13:58;17.50;59.50
46754;DHT22;32500;50.620;3.400;2023-02-21T09:16:24;17.40;59.60
46754;DHT22;32500;50.620;3.400;2023-02-21T09:18:54;17.50;59.60
46754;DHT22;32500;50.620;3.400;2023-02-21T09:21:21;17.40;59.80
46754;DHT22;32500;50.620;3.400;2023-02-21T09:23:48;17.50;60.00
46754;DHT22;32500;50.620;3.400;2023-02-21T09:26:16;17.60;59.70
46754;DHT22;32500;50.620;3.400;2023-02-21T09:28:41;17.60;59.50
46754;DHT22;32500;50.620;3.400;2023-02-21T09:31:07;17.90;59.30
46754;DHT22;32500;50.620;3.400;2023-02-21T09:33:36;18.00;59.10
46754;DHT22;32500;50.620;3.400;2023-02-21T09:36:06;18.20;58.50
46754;DHT22;32500;50.620;3.400;2023-02-21T09:38:32;18.30;58.30
46754;DHT22;32500;50.620;3.400;2023-02-21T09:41:02;18.40;58.10
46754;DHT22;32500;50.620;3.400;2023-02-21T09:43:38;18.40;57.90
46754;DHT22;32500;50.620;3.400;2023-02-21T09:46:12;18.40;57.80
46754;DHT22;32500;50.620;3.400;2023-02-21T09:48:40;18.40;57.90
46754;DHT22;32500;50.620;3.400;2023-02-21T09:51:10;18.50;58.10
46754;DHT22;32500;50.620;3.400;2023-02-21T09:53:38;18.50;57.80
46754;DHT22;32500;50.620;3.400;2023-02-21T09:56:29;18.50;57.70
46754;DHT22;32500;50.620;3.400;2023-02-21T09:58:58;18.50;57.80
46754;DHT22;32500;50.620;3.400;2023-02-21T10:01:49;18.60;57.60
46754;DHT22;32500;50.620;3.400;2023-02-21T10:06:58;18.60;57.30
46754;DHT22;32500;50.620;3.400;2023-02-21T10:12:53;18.50;57.70
46754;DHT22;32500;50.620;3.400;2023-02-21T10:15:35;18.50;57.60
46754;DHT22;32500;50.620;3.400;2023-02-21T10:18:21;18.50;57.80
46754;DHT22;32500;50.620;3.400;2023-02-21T10:20:55;18.60;57.70
46754;DHT22;32500;50.620;3.400;2023-02-21T10:23:30;18.60;57.60
46754;DHT22;32500;50.620;3.400;2023-02-21T10:26:00;18.80;57.10
46754;DHT22;32500;50.620;3.400;2023-02-21T10:28:27;18.90;56.70
46754;DHT22;32500;50.620;3.400;2023-02-21T10:31:00;19.00;56.60
46754;DHT22;32500;50.620;3.400;2023-02-21T10:33:27;19.00;56.30
46754;DHT22;32500;50.620;3.400;2023-02-21T10:35:53;18.90;56.20
46754;DHT22;32500;50.620;3.400;2023-02-21T10:38:23;18.90;56.30
46754;DHT22;32500;50.620;3.400;2023-02-21T10:40:58;18.90;56.20
46754;DHT22;32500;50.620;3.400;2023-02-21T10:43:31;18.90;56.20
46754;DHT22;32500;50.620;3.400;2023-02-21T10:48:43;19.00;56.10
46754;DHT22;32500;50.620;3.400;2023-02-21T10:51:13;19.00;56.00
46754;DHT22;32500;50.620;3.400;2023-02-21T10:53:45;19.00;55.90
46754;DHT22;32500;50.620;3.400;2023-02-21T10:56:21;19.00;55.80
46754;DHT22;32500;50.620;3.400;2023-02-21T10:58:56;19.00;55.70
46754;DHT22;32500;50.620;3.400;2023-02-21T11:06:50;19.10;56.10
46754;DHT22;32500;50.620;3.400;2023-02-21T11:09:46;19.10;56.10
46754;DHT22;32500;50.620;3.400;2023-02-21T11:12:24;19.00;56.30
46754;DHT22;32500;50.620;3.400;2023-02-21T11:17:27;19.10;56.00
46754;DHT22;32500;50.620;3.400;2023-02-21T11:19:54;19.10;56.30
46754;DHT22;32500;50.620;3.400;2023-02-21T11:25:20;19.10;56.40
46754;DHT22;32500;50.620;3.400;2023-02-21T11:33:23;19.10;56.50
46754;DHT22;32500;50.620;3.400;2023-02-21T11:35:51;19.10;56.50
46754;DHT22;32500;50.620;3.400;2023-02-21T11:41:13;19.10;56.50
46754;DHT22;32500;50.620;3.400;2023-02-21T11:43:45;19.10;56.30
46754;DHT22;32500;50.620;3.400;2023-02-21T11:51:50;19.20;56.10
46754;DHT22;32500;50.620;3.400;2023-02-21T11:54:20;19.20;56.30
46754;DHT22;32500;50.620;3.400;2023-02-21T11:57:30;19.10;56.20
46754;DHT22;32500;50.620;3.400;2023-02-21T12:02:32;19.20;56.30
46754;DHT22;32500;50.620;3.400;2023-02-21T12:13:15;19.20;56.30
46754;DHT22;32500;50.620;3.400;2023-02-21T12:23:27;19.20;56.60
46754;DHT22;32500;50.620;3.400;2023-02-21T12:26:00;19.20;57.00
46754;DHT22;32500;50.620;3.400;2023-02-21T12:34:17;19.20;57.10
46754;DHT22;32500;50.620;3.400;2023-02-21T12:40:03;19.30;57.50
46754;DHT22;32500;50.620;3.400;2023-02-21T12:45:44;19.30;57.30
46754;DHT22;32500;50.620;3.400;2023-02-21T12:51:07;19.40;57.10
46754;DHT22;32500;50.620;3.400;2023-02-21T12:53:50;19.50;56.90
46754;DHT22;32500;50.620;3.400;2023-02-21T12:56:20;19.50;56.80
46754;DHT22;32500;50.620;3.400;2023-02-21T12:59:13;19.50;56.90
46754;DHT22;32500;50.620;3.400;2023-02-21T13:01:44;19.50;56.90
46754;DHT22;32500;50.620;3.400;2023-02-21T13:04:26;19.50;57.10
46754;DHT22;32500;50.620;3.400;2023-02-21T13:07:41;19.60;57.00
46754;DHT22;32500;50.620;3.400;2023-02-21T13:10:13;19.60;57.20
46754;DHT22;32500;50.620;3.400;2023-02-21T13:13:06;19.70;56.90
46754;DHT22;32500;50.620;3.400;2023-02-21T13:15:34;19.80;56.80
46754;DHT22;32500;50.620;3.400;2023-02-21T13:18:09;19.90;56.60
46754;DHT22;32500;50.620;3.400;2023-02-21T13:20:43;19.90;56.60
46754;DHT22;32500;50.620;3.400;2023-02-21T13:26:23;20.10;56.30
46754;DHT22;32500;50.620;3.400;2023-02-21T13:28:53;20.30;56.20
46754;DHT22;32500;50.620;3.400;2023-02-21T13:31:23;20.20;56.00
46754;DHT22;32500;50.620;3.400;2023-02-21T13:33:52;20.30;55.90
46754;DHT22;32500;50.620;3.400;2023-02-21T13:36:39;20.40;56.00
46754;DHT22;32500;50.620;3.400;2023-02-21T13:39:12;20.50;55.70
46754;DHT22;32500;50.620;3.400;2023-02-21T13:41:52;20.50;55.70
46754;DHT22;32500;50.620;3.400;2023-02-21T13:44:47;20.60;55.70
46754;DHT22;32500;50.620;3.400;2023-02-21T13:47:22;20.60;55.90
46754;DHT22;32500;50.620;3.400;2023-02-21T13:49:57;20.60;55.80
46754;DHT22;32500;50.620;3.400;2023-02-21T13:52:33;20.60;55.80
46754;DHT22;32500;50.620;3.400;2023-02-21T13:58:21;20.60;56.00
46754;DHT22;32500;50.620;3.400;2023-02-21T14:10:49;20.60;56.20
46754;DHT22;32500;50.620;3.400;2023-02-21T14:21:44;20.50;56.20
46754;DHT22;32500;50.620;3.400;2023-02-21T14:24:14;20.60;55.80
46754;DHT22;32500;50.620;3.400;2023-02-21T14:29:42;20.70;55.60
46754;DHT22;32500;50.620;3.400;2023-02-21T14:37:25;20.90;55.20
46754;DHT22;32500;50.620;3.400;2023-02-21T14:39:55;21.00;55.00
46754;DHT22;32500;50.620;3.400;2023-02-21T14:50:16;21.10;54.60
46754;DHT22;32500;50.620;3.400;2023-02-21T14:53:12;21.10;54.70
46754;DHT22;32500;50.620;3.400;2023-02-21T14:56:11;21.10;54.60
46754;DHT22;32500;50.620;3.400;2023-02-21T15:01:39;21.20;54.40
46754;DHT22;32500;50.620;3.400;2023-02-21T15:06:35;21.30;53.90
46754;DHT22;32500;50.620;3.400;2023-02-21T15:09:16;21.20;54.00
46754;DHT22;32500;50.620;3.400;2023-02-21T15:11:42;21.20;54.20
46754;DHT22;32500;50.620;3.400;2023-02-21T15:16:57;21.20;54.50
46754;DHT22;32500;50.620;3.400;2023-02-21T15:19:27;21.20;54.80
46754;DHT22;32500;50.620;3.400;2023-02-21T15:22:13;21.20;54.80
46754;DHT22;32500;50.620;3.400;2023-02-21T15:24:39;21.10;55.00
46754;DHT22;32500;50.620;3.400;2023-02-21T15:27:12;21.10;55.00
46754;DHT22;32500;50.620;3.400;2023-02-21T15:29:39;21.10;54.90
46754;DHT22;32500;50.620;3.400;2023-02-21T15:32:06;21.00;54.70
46754;DHT22;32500;50.620;3.400;2023-02-21T15:34:37;20.90;54.50
46754;DHT22;32500;50.620;3.400;2023-02-21T15:37:22;20.90;54.60
46754;DHT22;32500;50.620;3.400;2023-02-21T15:39:57;20.90;55.10
46754;DHT22;32500;50.620;3.400;2023-02-21T15:42:24;21.00;55.30
46754;DHT22;32500;50.620;3.400;2023-02-21T15:45:18;21.00;55.60
46754;DHT22;32500;50.620;3.400;2023-02-21T15:47:44;21.10;55.50
46754;DHT22;32500;50.620;3.400;2023-02-21T15:52:50;21.10;55.80
46754;DHT22;32500;50.620;3.400;2023-02-21T16:03:36;21.20;55.70
46754;DHT22;32500;50.620;3.400;2023-02-21T16:06:18;21.30;55.80
46754;DHT22;32500;50.620;3.400;2023-02-21T16:11:44;21.30;55.80
46754;DHT22;32500;50.620;3.400;2023-02-21T16:14:34;21.30;56.00
46754;DHT22;32500;50.620;3.400;2023-02-21T16:17:23;21.30;56.20
46754;DHT22;32500;50.620;3.400;2023-02-21T16:19:56;21.30;56.40
46754;DHT22;32500;50.620;3.400;2023-02-21T16:24:48;21.20;56.70
46754;DHT22;32500;50.620;3.400;2023-02-21T16:27:16;21.10;56.90
46754;DHT22;32500;50.620;3.400;2023-02-21T16:29:42;21.10;56.90
46754;DHT22;32500;50.620;3.400;2023-02-21T16:32:18;21.10;57.00
46754;DHT22;32500;50.620;3.400;2023-02-21T16:34:45;21.10;57.00
46754;DHT22;32500;50.620;3.400;2023-02-21T16:37:12;21.10;57.00
46754;DHT22;32500;50.620;3.400;2023-02-21T16:39:39;21.10;57.30
46754;DHT22;32500;50.620;3.400;2023-02-21T16:42:05;21.00;57.40
46754;DHT22;32500;50.620;3.400;2023-02-21T16:44:32;21.00;57.40
46754;DHT22;32500;50.620;3.400;2023-02-21T16:46:57;21.00;57.40
46754;DHT22;32500;50.620;3.400;2023-02-21T16:49:23;20.90;57.50
46754;DHT22;32500;50.620;3.400;2023-02-21T16:51:49;20.90;57.50
46754;DHT22;32500;50.620;3.400;2023-02-21T16:54:15;20.90;57.40
46754;DHT22;32500;50.620;3.400;2023-02-21T16:56:43;20.90;57.50
46754;DHT22;32500;50.620;3.400;2023-02-21T16:59:19;21.00;57.20
46754;DHT22;32500;50.620;3.400;2023-02-21T17:01:46;20.90;57.20
46754;DHT22;32500;50.620;3.400;2023-02-21T17:04:16;21.00;57.00
46754;DHT22;32500;50.620;3.400;2023-02-21T17:06:45;21.00;57.10
46754;DHT22;32500;50.620;3.400;2023-02-21T17:09:19;21.00;57.00
46754;DHT22;32500;50.620;3.400;2023-02-21T17:11:45;21.00;56.90
46754;DHT22;32500;50.620;3.400;2023-02-21T17:14:11;21.00;56.80
46754;DHT22;32500;50.620;3.400;2023-02-21T17:16:37;20.90;56.90
46754;DHT22;32500;50.620;3.400;2023-02-21T17:19:03;20.70;57.20
46754;DHT22;32500;50.620;3.400;2023-02-21T17:21:30;20.90;56.70
46754;DHT22;32500;50.620;3.400;2023-02-21T17:23:56;20.80;56.20
46754;DHT22;32500;50.620;3.400;2023-02-21T17:26:23;20.80;56.00
46754;DHT22;32500;50.620;3.400;2023-02-21T17:28:49;20.80;56.50
46754;DHT22;32500;50.620;3.400;2023-02-21T17:31:15;20.60;55.90
46754;DHT22;32500;50.620;3.400;2023-02-21T17:33:44;20.50;55.90
46754;DHT22;32500;50.620;3.400;2023-02-21T17:36:17;20.30;56.20
46754;DHT22;32500;50.620;3.400;2023-02-21T17:38:43;20.30;56.40
46754;DHT22;32500;50.620;3.400;2023-02-21T17:41:08;20.10;56.30
46754;DHT22;32500;50.620;3.400;2023-02-21T17:43:34;20.00;56.40
46754;DHT22;32500;50.620;3.400;2023-02-21T17:45:59;20.00;56.70
46754;DHT22;32500;50.620;3.400;2023-02-21T17:48:25;19.80;57.10
46754;DHT22;32500;50.620;3.400;2023-02-21T17:50:51;19.60;57.30
46754;DHT22;32500;50.620;3.400;2023-02-21T17:53:17;19.50;57.60
46754;DHT22;32500;50.620;3.400;2023-02-21T17:55:42;19.50;57.90
46754;DHT22;32500;50.620;3.400;2023-02-21T17:58:08;19.40;57.80
46754;DHT22;32500;50.620;3.400;2023-02-21T18:00:34;19.40;58.00
46754;DHT22;32500;50.620;3.400;2023-02-21T18:03:01;19.30;58.00
46754;DHT22;32500;50.620;3.400;2023-02-21T18:05:30;19.20;58.20
46754;DHT22;32500;50.620;3.400;2023-02-21T18:07:56;19.10;58.50
46754;DHT22;32500;50.620;3.400;2023-02-21T18:10:24;19.00;58.80
46754;DHT22;32500;50.620;3.400;2023-02-21T18:12:50;18.90;58.90
46754;DHT22;32500;50.620;3.400;2023-02-21T18:15:17;19.00;58.60
46754;DHT22;32500;50.620;3.400;2023-02-21T18:17:43;18.90;59.00
46754;DHT22;32500;50.620;3.400;2023-02-21T18:20:09;18.90;59.00
46754;DHT22;32500;50.620;3.400;2023-02-21T18:22:36;18.90;58.70
46754;DHT22;32500;50.620;3.400;2023-02-21T18:25:03;18.80;58.70
46754;DHT22;32500;50.620;3.400;2023-02-21T18:27:29;18.70;59.00
46754;DHT22;32500;50.620;3.400;2023-02-21T18:29:55;18.70;59.10
46754;DHT22;32500;50.620;3.400;2023-02-21T18:32:24;18.60;59.30
46754;DHT22;32500;50.620;3.400;2023-02-21T18:34:50;18.70;59.50
46754;DHT22;32500;50.620;3.400;2023-02-21T18:37:16;18.60;59.50
46754;DHT22;32500;50.620;3.400;2023-02-21T18:39:42;18.70;59.50